This is the latest recevied weather packets stored in our database for station/object AB2HM. If no packets are shown the sender has not sent any weather packets the latest 10 day(s).
| Time | Temp. | Humidity | Pressure | Rain* | Wind** | Luminosity | Snow |
|---|---|---|---|---|---|---|---|
| 1777248173 | 12.78° C | 71% | 1021.8 hPa | 0 mm | - | - | - |
| 1777246373 | 13.33° C | 68% | 1021.4 hPa | 0 mm | - | - | - |
| 1777244567 | 14.44° C | 64% | 1021.1 hPa | 0 mm | - | - | - |
| 1777242764 | 15° C | 63% | 1021 hPa | 0 mm | - | - | - |
| 1777240962 | 15.56° C | 62% | 1020.8 hPa | 0 mm | - | - | - |
| 1777239155 | 15.56° C | 61% | 1020.6 hPa | 0 mm | - | - | - |
| 1777237356 | 16.11° C | 61% | 1020.4 hPa | 0 mm | - | - | - |
| 1777235549 | 15° C | 63% | 1020.3 hPa | 0.25 mm | - | - | - |
| 1777233734 | 15.56° C | 62% | 1020.3 hPa | 0.25 mm | - | - | - |
| 1777231918 | 14.44° C | 66% | 1020.3 hPa | 0 mm | - | - | - |
| 1777230113 | 13.89° C | 70% | 1020.5 hPa | 0 mm | - | - | - |
| 1777228306 | 12.78° C | 73% | 1020.7 hPa | 0 mm | - | - | - |
| 1777226503 | 11.67° C | 76% | 1020.6 hPa | 0 mm | - | - | - |
| 1777224702 | 11.11° C | 79% | 1020.7 hPa | 0 mm | - | - | - |
| 1777222899 | 10.56° C | 81% | 1020.6 hPa | 0 mm | - | - | - |
| 1777221096 | 10° C | 84% | 1020.8 hPa | 0 mm | - | - | - |
| 1777219289 | 10° C | 85% | 1020.6 hPa | 0 mm | - | - | - |
| 1777217487 | 9.44° C | 89% | 1020.5 hPa | 0 mm | - | - | - |
| 1777215683 | 9.44° C | 91% | 1020.3 hPa | 0 mm | - | - | - |
| 1777213880 | 8.33° C | 91% | 1020.2 hPa | 0 mm | - | - | - |
| 1777212081 | 8.33° C | 92% | 1019.9 hPa | 0 mm | - | - | - |
| 1777210275 | 8.33° C | 93% | 1019.8 hPa | 0 mm | - | - | - |
| 1777208440 | 7.78° C | 94% | 1019.4 hPa | 0 mm | - | - | - |
| 1777206636 | 7.78° C | 95% | 1019.2 hPa | 0 mm | - | - | - |
| 1777204837 | 7.22° C | 95% | 1019 hPa | 0 mm | - | - | - |
* Rain latest hour (hover to see other rain measurements)
** Current wind speed in m/s (hover to see current wind gust speed)